Time;durP1;ratioP1;P1;durP2;ratioP2;P2;SDS_P1;SDS_P2;PMS_P1;PMS_P2;Temp;Humidity;BMP_temperature;BMP_pressure;BME280_temperature;BME280_humidity;BME280_pressure;Samples;Min_cycle;Max_cycle;Signal;HPM_P1;HPM_P2
2021/03/02 00:02:15;;;;;;;16.62;11.60;;;;;;;8.99;48.75;101961.74;1725765;82;21878;-77
2021/03/02 00:04:46;;;;;;;18.35;11.05;;;;;;;8.99;48.76;101957.73;1758701;81;21081;-77
2021/03/02 00:07:15;;;;;;;15.45;10.80;;;;;;;8.99;48.77;101957.73;1735463;82;21234;-77
2021/03/02 00:09:43;;;;;;;16.75;10.13;;;;;;;8.98;48.82;101958.70;1727721;83;21088;-76
2021/03/02 00:12:14;;;;;;;12.98;8.73;;;;;;;8.97;48.77;101953.00;1749780;81;21052;-78
2021/03/02 00:14:42;;;;;;;15.78;10.15;;;;;;;8.98;48.84;101957.86;1734054;81;21645;-76
2021/03/02 00:17:16;;;;;;;14.75;9.73;;;;;;;8.97;48.85;101955.67;1727679;83;21231;-75
2021/03/02 00:19:48;;;;;;;14.07;9.98;;;;;;;9.01;48.85;101950.48;1732303;82;21119;-76
2021/03/02 00:22:24;;;;;;;13.43;9.70;;;;;;;9.02;48.82;101949.51;1689890;82;21179;-77
2021/03/02 00:24:54;;;;;;;13.58;8.53;;;;;;;9.00;48.83;101946.10;1702067;83;21519;-77
2021/03/02 00:27:23;;;;;;;12.23;8.93;;;;;;;9.02;48.78;101938.81;1741891;80;23101;-76
2021/03/02 00:29:51;;;;;;;11.65;8.45;;;;;;;9.02;48.73;101944.16;1741929;82;21571;-76
2021/03/02 00:32:20;;;;;;;13.75;8.30;;;;;;;9.03;48.70;101941.00;1733919;80;21133;-76
2021/03/02 00:34:48;;;;;;;11.28;8.35;;;;;;;9.05;48.60;101940.42;1749989;80;21163;-75
2021/03/02 00:37:17;;;;;;;13.62;8.20;;;;;;;9.05;48.58;101934.59;1735476;80;21548;-76
2021/03/02 00:39:45;;;;;;;11.53;8.45;;;;;;;9.03;48.56;101931.65;1730381;80;22640;-76
2021/03/02 00:42:12;;;;;;;12.80;8.95;;;;;;;9.02;48.54;101924.11;1720030;80;21172;-76
2021/03/02 00:44:40;;;;;;;9.88;7.35;;;;;;;8.96;48.59;101915.22;1736130;81;21617;-75
2021/03/02 00:47:09;;;;;;;12.20;8.30;;;;;;;8.95;48.69;101916.20;1727564;82;21565;-77
2021/03/02 00:49:43;;;;;;;13.50;9.78;;;;;;;8.95;48.77;101918.87;1722594;81;21158;-76
2021/03/02 00:52:10;;;;;;;13.62;9.90;;;;;;;8.97;48.73;101920.92;1732632;81;22656;-77
2021/03/02 00:54:38;;;;;;;15.35;10.35;;;;;;;8.99;48.68;101919.47;1732347;82;21133;-77
2021/03/02 00:57:06;;;;;;;14.58;10.40;;;;;;;9.01;48.66;101915.73;1728608;82;21094;-77
2021/03/02 00:59:33;;;;;;;14.35;9.40;;;;;;;9.01;48.65;101903.70;1806405;79;21473;-77
2021/03/02 01:02:02;;;;;;;14.38;9.50;;;;;;;9.03;48.62;101901.76;1806387;79;21039;-75
2021/03/02 01:04:30;;;;;;;12.40;9.13;;;;;;;9.02;48.52;101907.23;1800159;79;21360;-76
2021/03/02 01:07:00;;;;;;;12.78;9.08;;;;;;;8.99;48.51;101899.42;1800429;79;21161;-76
2021/03/02 01:09:30;;;;;;;14.10;9.35;;;;;;;8.98;48.49;101893.72;1797110;79;21628;-79
2021/03/02 01:11:58;;;;;;;11.90;8.60;;;;;;;8.96;48.52;101883.64;1795538;79;21533;-76
2021/03/02 01:14:28;;;;;;;13.75;8.95;;;;;;;8.96;48.44;101885.83;1718657;82;21194;-77
2021/03/02 01:16:56;;;;;;;11.85;8.25;;;;;;;8.95;48.48;101885.46;1756096;81;21367;-76
2021/03/02 01:19:24;;;;;;;11.63;7.95;;;;;;;8.95;48.43;101889.92;1755522;81;21080;-78
2021/03/02 01:21:51;;;;;;;13.80;8.85;;;;;;;8.92;48.53;101884.34;1755505;81;21101;-77
2021/03/02 01:24:19;;;;;;;14.98;9.15;;;;;;;8.94;48.56;101882.88;1734683;81;21113;-78
2021/03/02 01:26:47;;;;;;;12.00;8.73;;;;;;;8.95;48.57;101876.56;1726574;82;21960;-78
2021/03/02 01:29:15;;;;;;;12.73;8.40;;;;;;;8.98;48.48;101876.34;1738566;82;21213;-77
2021/03/02 01:31:42;;;;;;;11.05;8.40;;;;;;;9.01;48.33;101872.97;1795300;79;21142;-77
2021/03/02 01:34:10;;;;;;;11.68;8.28;;;;;;;9.00;48.35;101865.92;1757612;80;21118;-76
2021/03/02 01:36:38;;;;;;;11.28;7.92;;;;;;;9.00;48.29;101869.09;1717654;82;21183;-77
2021/03/02 01:39:06;;;;;;;11.75;8.23;;;;;;;9.04;48.22;101859.39;1706860;82;21082;-78
2021/03/02 01:41:34;;;;;;;11.78;8.13;;;;;;;9.04;48.21;101858.05;1703223;83;21411;-77
2021/03/02 01:44:03;;;;;;;10.75;7.67;;;;;;;9.08;48.12;101857.31;1703148;83;21324;-76
2021/03/02 01:46:31;;;;;;;10.40;7.22;;;;;;;8.95;48.34;101856.06;1702865;84;21166;-78
2021/03/02 01:48:59;;;;;;;9.98;6.65;;;;;;;8.97;48.25;101850.11;1703358;84;21624;-77
2021/03/02 01:51:27;;;;;;;10.85;7.28;;;;;;;8.97;48.35;101852.78;1729100;81;21639;-76
2021/03/02 01:53:55;;;;;;;8.90;6.40;;;;;;;8.95;48.33;101845.38;1716961;82;22488;-78
2021/03/02 01:56:23;;;;;;;10.10;6.80;;;;;;;8.95;48.23;101850.72;1741637;81;21707;-78
2021/03/02 01:58:50;;;;;;;10.20;7.62;;;;;;;8.97;48.15;101858.13;1741863;81;21130;-77
2021/03/02 02:01:19;;;;;;;11.08;7.90;;;;;;;8.98;48.18;101845.12;1803510;79;21178;-76
2021/03/02 02:04:26;;;;;;;10.78;7.55;;;;;;;9.01;48.09;101828.02;1794322;79;21133;-75
2021/03/02 02:07:02;;;;;;;9.70;7.30;;;;;;;9.02;48.03;101822.55;1750936;81;21397;-77
2021/03/02 02:09:41;;;;;;;12.15;8.05;;;;;;;9.04;48.01;101825.98;1777501;79;21169;-77
2021/03/02 02:12:22;;;;;;;10.15;7.28;;;;;;;9.04;47.98;101821.97;1773556;80;21124;-76
2021/03/02 02:14:59;;;;;;;10.40;7.47;;;;;;;9.02;48.07;101821.22;1775290;80;21118;-76
2021/03/02 02:17:32;;;;;;;11.00;7.30;;;;;;;9.00;48.01;101806.28;1777024;79;21117;-78
2021/03/02 02:20:07;;;;;;;11.55;7.47;;;;;;;8.99;47.97;101809.89;1775490;80;21365;-78
2021/03/02 02:23:15;;;;;;;13.18;8.18;;;;;;;8.97;48.01;101800.67;1774314;80;21066;-77
2021/03/02 02:26:17;;;;;;;17.07;9.55;;;;;;;8.95;48.08;101797.27;1774303;80;21142;-77
2021/03/02 02:28:44;;;;;;;16.05;9.98;;;;;;;8.94;48.09;101793.36;1774224;79;21038;-78
2021/03/02 02:31:12;;;;;;;13.18;8.88;;;;;;;8.94;48.04;101792.02;1727586;80;21157;-76
2021/03/02 02:33:42;;;;;;;17.37;9.70;;;;;;;8.93;47.98;101788.50;1785129;79;21185;-77
2021/03/02 02:36:14;;;;;;;16.35;8.60;;;;;;;8.93;48.08;101779.15;1774043;78;21181;-77
2021/03/02 02:38:46;;;;;;;19.52;9.38;;;;;;;8.95;48.12;101775.89;1773107;80;21138;-77
2021/03/02 02:41:13;;;;;;;21.82;10.80;;;;;;;8.96;48.13;101772.25;1772925;80;21162;-77
2021/03/02 02:43:41;;;;;;;15.53;9.55;;;;;;;8.97;47.98;101771.77;1751380;80;21170;-77
2021/03/02 02:46:09;;;;;;;14.95;10.03;;;;;;;8.99;47.85;101771.14;1751444;80;22228;-76
2021/03/02 02:48:37;;;;;;;14.58;9.85;;;;;;;8.99;47.79;101765.31;1773070;80;21169;-78
2021/03/02 02:51:05;;;;;;;14.25;9.33;;;;;;;8.99;47.75;101761.80;1774214;80;21093;-77
2021/03/02 02:53:33;;;;;;;14.13;8.45;;;;;;;8.97;47.77;101757.91;1753114;80;21501;-77
2021/03/02 02:56:03;;;;;;;15.38;9.90;;;;;;;8.97;47.77;101758.40;1727584;80;21641;-77
2021/03/02 02:58:38;;;;;;;15.48;9.00;;;;;;;8.94;47.85;101756.80;1753066;80;21369;-77
2021/03/02 03:01:06;;;;;;;16.27;8.40;;;;;;;8.94;47.81;101754.12;1773307;80;21145;-76
2021/03/02 03:03:35;;;;;;;12.73;7.97;;;;;;;8.92;47.80;101753.41;1778959;79;21161;-77
2021/03/02 03:06:07;;;;;;;12.98;7.90;;;;;;;8.92;47.88;101754.73;1731389;82;21162;-77
2021/03/02 03:08:34;;;;;;;12.33;7.62;;;;;;;8.91;47.83;101751.70;1794952;79;21190;-76
2021/03/02 03:11:04;;;;;;;13.10;6.95;;;;;;;8.91;47.79;101748.19;1803134;79;21354;-77
2021/03/02 03:13:36;;;;;;;10.10;6.58;;;;;;;8.92;47.75;101749.39;1803159;79;21688;-77
2021/03/02 03:16:06;;;;;;;10.90;7.65;;;;;;;8.95;47.72;101745.62;1760480;81;21103;-77
2021/03/02 03:18:49;;;;;;;9.65;6.72;;;;;;;8.96;47.68;101730.83;1730936;81;21068;-78
2021/03/02 03:21:17;;;;;;;9.93;6.55;;;;;;;8.98;47.68;101728.87;1730925;81;21484;-78
2021/03/02 03:23:46;;;;;;;9.20;6.60;;;;;;;8.98;47.60;101718.67;1730810;83;21824;-78
2021/03/02 03:26:15;;;;;;;8.80;6.15;;;;;;;9.00;47.53;101717.60;1730701;83;21102;-78
2021/03/02 03:28:45;;;;;;;9.13;6.35;;;;;;;9.00;47.46;101712.26;1730954;83;21526;-77
2021/03/02 03:31:12;;;;;;;8.35;5.87;;;;;;;8.99;47.41;101711.02;1730736;83;21071;-76
2021/03/02 03:33:41;;;;;;;8.70;5.50;;;;;;;8.95;47.43;101702.41;1708535;83;21138;-75
2021/03/02 03:36:10;;;;;;;7.40;5.62;;;;;;;8.94;47.47;101706.52;1717389;81;22318;-76
2021/03/02 03:38:38;;;;;;;7.50;5.45;;;;;;;8.92;47.47;101706.64;1722854;83;21598;-75
2021/03/02 03:41:06;;;;;;;9.30;5.85;;;;;;;8.89;47.48;101697.51;1714550;82;21197;-74
2021/03/02 03:43:34;;;;;;;8.55;5.67;;;;;;;8.86;47.48;101691.09;1723607;82;21196;-75
2021/03/02 03:46:03;;;;;;;8.20;6.00;;;;;;;8.85;47.53;101687.53;1721495;82;21200;-75
2021/03/02 03:48:31;;;;;;;8.03;6.12;;;;;;;8.84;47.50;101684.99;1710396;82;21807;-76
2021/03/02 03:50:59;;;;;;;7.25;5.55;;;;;;;8.86;47.60;101675.05;1725745;82;21123;-76
2021/03/02 03:53:30;;;;;;;8.70;6.05;;;;;;;8.87;47.62;101672.74;1796349;79;21157;-76
2021/03/02 03:55:58;;;;;;;7.92;5.45;;;;;;;8.88;47.52;101663.75;1793673;79;21154;-76
2021/03/02 03:58:28;;;;;;;7.85;5.80;;;;;;;8.90;47.47;101657.80;1740760;81;21066;-77
2021/03/02 04:00:56;;;;;;;10.43;6.37;;;;;;;8.92;47.47;101659.88;1802268;79;21565;-77
2021/03/02 04:03:25;;;;;;;9.00;5.50;;;;;;;8.92;47.47;101657.20;1794855;79;21169;-75
2021/03/02 04:05:53;;;;;;;7.90;5.20;;;;;;;8.91;47.48;101647.50;1768109;79;21129;-75
2021/03/02 04:08:21;;;;;;;9.30;6.03;;;;;;;8.92;47.42;101640.33;1757731;81;21162;-75
2021/03/02 04:10:49;;;;;;;7.08;5.17;;;;;;;8.91;47.46;101643.98;1733367;82;21142;-76
2021/03/02 04:13:16;;;;;;;6.90;5.08;;;;;;;8.91;47.40;101632.80;1692260;82;22630;-75
2021/03/02 04:15:44;;;;;;;6.33;5.30;;;;;;;8.90;47.36;101633.74;1730265;82;21137;-76
2021/03/02 04:18:17;;;;;;;7.53;5.15;;;;;;;8.88;47.42;101623.19;1723121;82;21121;-77
2021/03/02 04:20:47;;;;;;;11.12;6.87;;;;;;;8.87;47.43;101618.82;1725325;82;21106;-76
2021/03/02 04:23:15;;;;;;;8.70;5.72;;;;;;;8.85;47.43;101619.41;1739919;82;21127;-77
2021/03/02 04:25:43;;;;;;;10.10;6.37;;;;;;;8.85;47.48;101622.56;1786627;79;22264;-76
2021/03/02 04:28:11;;;;;;;10.10;5.50;;;;;;;8.84;47.53;101618.20;1747078;81;21158;-76
2021/03/02 04:30:39;;;;;;;10.82;5.90;;;;;;;8.83;47.57;101604.48;1729446;81;21185;-76
2021/03/02 04:33:07;;;;;;;9.28;6.28;;;;;;;8.84;47.60;101603.02;1794991;79;21645;-75
2021/03/02 04:35:36;;;;;;;9.13;6.40;;;;;;;8.82;47.63;101599.63;1732955;81;21178;-76
2021/03/02 04:38:04;;;;;;;11.10;6.37;;;;;;;8.83;47.57;101599.14;1796065;79;21810;-75
2021/03/02 04:40:32;;;;;;;12.18;7.33;;;;;;;8.84;47.51;101596.83;1717578;81;21288;-75
2021/03/02 04:43:00;;;;;;;10.98;6.67;;;;;;;8.80;47.56;101590.86;1690566;82;21576;-76
2021/03/02 04:45:32;;;;;;;11.00;7.47;;;;;;;8.81;47.54;101597.05;1717263;82;21190;-77
2021/03/02 04:47:59;;;;;;;13.43;7.40;;;;;;;8.81;47.49;101589.03;1805399;79;21117;-76
2021/03/02 04:50:28;;;;;;;12.82;7.75;;;;;;;8.80;47.47;101594.02;1806198;79;22355;-75
2021/03/02 04:52:56;;;;;;;12.03;7.10;;;;;;;8.78;47.47;101591.97;1805483;79;21082;-76
2021/03/02 04:55:24;;;;;;;13.32;7.10;;;;;;;8.77;47.50;101591.61;1788571;79;21039;-76
2021/03/02 04:57:52;;;;;;;10.70;7.10;;;;;;;8.76;47.54;101589.87;1780299;79;21174;-75
2021/03/02 05:00:22;;;;;;;13.15;7.87;;;;;;;8.75;47.61;101589.03;1778638;78;21098;-76
2021/03/02 05:02:51;;;;;;;12.80;9.25;;;;;;;8.73;47.52;101586.13;1719618;82;21335;-76
2021/03/02 05:05:19;;;;;;;12.98;10.72;;;;;;;8.71;47.66;101584.05;1786555;78;21168;-76
2021/03/02 05:07:49;;;;;;;11.50;7.78;;;;;;;8.68;47.66;101584.30;1772611;80;21137;-76
2021/03/02 05:10:16;;;;;;;12.00;7.03;;;;;;;8.68;47.59;101574.95;1772446;80;21118;-76
2021/03/02 05:12:44;;;;;;;12.65;7.50;;;;;;;8.70;47.55;101575.67;1772229;79;21138;-76
2021/03/02 05:15:13;;;;;;;12.88;7.03;;;;;;;8.72;47.53;101573.72;1778176;78;21795;-76
2021/03/02 05:17:41;;;;;;;18.52;13.20;;;;;;;8.75;47.50;101566.81;1789258;79;21027;-75
2021/03/02 05:20:13;;;;;;;8.88;7.10;;;;;;;8.80;47.46;101569.48;1780154;79;21197;-77
2021/03/02 05:22:41;;;;;;;9.05;6.17;;;;;;;8.83;47.41;101552.38;1727584;81;21116;-75
2021/03/02 05:25:11;;;;;;;10.53;8.43;;;;;;;8.85;47.40;101554.44;1736410;80;21436;-75
2021/03/02 05:27:39;;;;;;;10.53;7.45;;;;;;;8.88;47.34;101546.19;1798607;79;21354;-77
2021/03/02 05:30:08;;;;;;;12.63;8.23;;;;;;;8.93;47.32;101537.32;1749002;80;21109;-75
2021/03/02 05:32:36;;;;;;;11.05;7.12;;;;;;;8.98;47.23;101531.13;1719724;83;21506;-78
2021/03/02 05:35:08;;;;;;;13.08;8.50;;;;;;;9.02;47.15;101537.93;1729321;80;21197;-77
2021/03/02 05:37:35;;;;;;;10.78;7.35;;;;;;;9.05;47.11;101532.35;1797336;79;21149;-75
2021/03/02 05:40:18;;;;;;;10.15;7.75;;;;;;;9.08;47.04;101534.79;1775835;79;22615;-77
2021/03/02 05:42:46;;;;;;;10.68;7.78;;;;;;;9.09;46.97;101532.48;1799640;79;21486;-75
2021/03/02 05:45:17;;;;;;;11.38;7.42;;;;;;;9.14;47.08;101530.28;1782719;78;21969;-77
2021/03/02 05:47:45;;;;;;;11.83;7.45;;;;;;;9.19;46.95;101523.23;1779984;79;21116;-75
2021/03/02 05:50:15;;;;;;;12.65;7.83;;;;;;;9.23;46.93;101514.48;1741543;82;21097;-76
2021/03/02 05:52:43;;;;;;;24.98;15.18;;;;;;;9.27;46.87;101511.44;1781726;79;22237;-75
2021/03/02 05:55:12;;;;;;;13.75;7.42;;;;;;;9.33;46.78;101508.75;1802992;78;21106;-75
2021/03/02 05:57:41;;;;;;;10.98;7.15;;;;;;;9.37;46.80;101511.54;1730233;82;21216;-77
2021/03/02 06:00:10;;;;;;;8.08;6.50;;;;;;;9.45;46.74;101506.42;1693194;81;21536;-76
2021/03/02 06:02:39;;;;;;;10.43;6.95;;;;;;;9.51;46.52;101502.39;1729814;82;21201;-76
2021/03/02 06:05:09;;;;;;;10.13;6.10;;;;;;;9.57;46.48;101495.19;1782728;79;21184;-76
2021/03/02 06:07:37;;;;;;;8.28;5.80;;;;;;;9.60;46.55;101492.27;1779217;78;21141;-76
2021/03/02 06:10:06;;;;;;;9.53;6.08;;;;;;;9.65;46.47;101498.09;1783631;78;21118;-75
2021/03/02 06:12:54;;;;;;;12.58;7.42;;;;;;;9.71;46.44;101490.03;1788411;78;21094;-77
2021/03/02 06:15:25;;;;;;;10.18;6.30;;;;;;;9.77;46.13;101493.06;1746522;80;21208;-75
2021/03/02 06:18:13;;;;;;;11.60;8.00;;;;;;;9.85;46.02;101489.23;1813265;77;27955;-74
2021/03/02 06:20:42;;;;;;;12.25;6.33;;;;;;;9.92;45.89;101493.61;1829897;77;21170;-75
2021/03/02 06:23:29;;;;;;;8.83;5.97;;;;;;;9.98;45.69;101497.09;1829722;77;21377;-75
2021/03/02 06:26:12;;;;;;;8.53;5.83;;;;;;;10.01;45.67;101506.22;1803181;78;21114;-76
2021/03/02 06:28:45;;;;;;;9.83;6.37;;;;;;;10.00;45.62;101514.38;1801274;78;21117;-76
2021/03/02 06:31:38;;;;;;;9.75;6.10;;;;;;;9.99;45.77;101518.89;1793634;78;21125;-76
2021/03/02 06:34:16;;;;;;;8.05;5.20;;;;;;;10.00;45.72;101516.56;1802706;78;21098;-76
2021/03/02 06:36:58;;;;;;;9.08;4.45;;;;;;;10.00;45.77;101517.91;1793542;77;62418;-77
2021/03/02 06:39:42;;;;;;;6.72;4.47;;;;;;;9.99;45.77;101513.54;1782515;78;21635;-78
2021/03/02 06:42:22;;;;;;;7.40;4.60;;;;;;;10.02;45.79;101514.59;1778801;79;20997;-77
2021/03/02 06:44:52;;;;;;;7.80;4.47;;;;;;;10.03;45.58;101516.29;1787228;78;21453;-75
2021/03/02 06:47:40;;;;;;;7.85;4.17;;;;;;;10.07;45.62;101514.21;1809756;78;21137;-77
2021/03/02 06:50:18;;;;;;;6.62;3.90;;;;;;;10.12;45.58;101511.50;1771907;79;30269;-76
2021/03/02 06:52:46;;;;;;;8.33;4.60;;;;;;;10.16;45.49;101508.92;1778339;79;21139;-78
2021/03/02 06:55:22;;;;;;;6.95;4.80;;;;;;;10.19;45.35;101504.31;1807767;77;44400;-75
2021/03/02 06:57:51;;;;;;;;;;;;;;;10.20;45.26;101490.78;1782690;79;21116;-76
2021/03/02 07:00:31;;;;;;;8.27;4.27;;;;;;;10.21;45.38;101507.69;1782929;79;21011;-76
2021/03/02 07:03:03;;;;;;;6.37;4.17;;;;;;;10.20;45.13;101507.34;1804223;77;21362;-77
2021/03/02 07:05:31;;;;;;;8.03;4.42;;;;;;;10.19;45.10;101519.03;1810168;78;21501;-76
2021/03/02 07:08:00;;;;;;;7.40;4.53;;;;;;;10.19;45.08;101503.81;1793084;78;21460;-78
2021/03/02 07:10:28;;;;;;;8.73;6.08;;;;;;;10.14;45.21;101512.23;1783622;79;21105;-77
2021/03/02 07:12:56;;;;;;;7.97;5.50;;;;;;;10.15;45.32;101503.71;1785637;78;21077;-76
2021/03/02 07:15:26;;;;;;;8.55;5.33;;;;;;;10.16;45.26;101510.27;1786507;79;21368;-77
2021/03/02 07:17:54;;;;;;;8.28;5.30;;;;;;;10.16;45.22;101506.25;1719659;78;1524572;-76
2021/03/02 07:22:37;;;;;;;7.37;5.47;;;;;;;10.15;45.26;101501.87;1700572;81;191643;-76
2021/03/02 07:25:09;;;;;;;7.62;4.75;;;;;;;10.08;45.24;101510.55;1697735;80;21243;-77
2021/03/02 07:27:41;;;;;;;11.03;6.00;;;;;;;10.05;45.19;101494.27;1666704;80;2433211;-75
2021/03/02 07:30:16;;;;;;;14.38;9.25;;;;;;;10.04;45.25;101498.43;1626577;82;4243839;-76
2021/03/02 07:32:55;;;;;;;8.75;5.33;;;;;;;10.03;45.36;101500.23;1632576;84;21158;-76
2021/03/02 07:35:25;;;;;;;7.08;5.40;;;;;;;10.02;45.38;101496.36;1632913;81;2318285;-75
2021/03/02 07:38:16;;;;;;;8.75;5.30;;;;;;;9.99;45.56;101492.13;1646513;83;61606;-77
2021/03/02 07:40:55;;;;;;;8.18;6.00;;;;;;;9.98;45.58;101493.57;1672865;84;21161;-75
2021/03/02 07:43:35;;;;;;;8.88;5.72;;;;;;;9.96;45.63;101495.55;1672845;84;21665;-75
2021/03/02 07:46:42;;;;;;;8.45;5.83;;;;;;;9.95;45.60;101496.03;1677354;84;21167;-76
2021/03/02 07:49:28;;;;;;;10.80;6.75;;;;;;;9.94;45.73;101490.30;1675379;84;21152;-77
2021/03/02 07:52:04;;;;;;;8.80;5.78;;;;;;;9.95;45.82;101485.79;1645809;85;21155;-78
2021/03/02 07:54:33;;;;;;;7.60;5.40;;;;;;;9.96;45.89;101485.69;1643753;85;21421;-76
2021/03/02 07:57:21;;;;;;;8.45;5.67;;;;;;;9.99;45.86;101484.56;1650802;84;21171;-75
2021/03/02 08:00:21;;;;;;;7.50;5.45;;;;;;;10.00;45.67;101492.48;1643866;85;21178;-76
2021/03/02 08:03:29;;;;;;;8.55;5.65;;;;;;;10.01;45.59;101495.51;1693715;81;21191;-75
2021/03/02 08:06:01;;;;;;;9.00;5.75;;;;;;;10.01;45.62;101499.52;1677784;83;21188;-77
2021/03/02 08:08:29;;;;;;;8.18;5.67;;;;;;;10.00;45.64;101487.13;1694175;83;21158;-76
2021/03/02 08:11:03;;;;;;;8.30;5.67;;;;;;;9.99;45.65;101493.47;1694450;83;21762;-75
2021/03/02 08:13:38;;;;;;;8.23;5.62;;;;;;;10.04;45.54;101497.09;1694516;83;22113;-76
2021/03/02 08:16:10;;;;;;;9.03;6.33;;;;;;;10.01;45.54;101492.83;1692777;82;21664;-75
2021/03/02 08:18:52;;;;;;;7.75;5.62;;;;;;;9.99;45.57;101488.57;1716204;81;21195;-76
2021/03/02 08:21:49;;;;;;;7.25;5.50;;;;;;;10.01;45.61;101503.54;1684444;83;21170;-77
2021/03/02 08:24:42;;;;;;;8.63;6.20;;;;;;;10.00;45.47;101493.81;1672813;81;21279;-77
2021/03/02 08:27:17;;;;;;;8.80;5.55;;;;;;;9.97;45.40;101492.73;1716855;81;21184;-78
2021/03/02 08:29:50;;;;;;;8.55;5.22;;;;;;;9.92;45.64;101490.92;1695924;82;21151;-74
2021/03/02 08:32:20;;;;;;;7.90;5.85;;;;;;;9.92;45.74;101504.31;1679081;82;21162;-76
2021/03/02 08:34:48;;;;;;;8.33;5.95;;;;;;;9.90;45.79;101495.55;1685786;81;21177;-75
2021/03/02 08:37:16;;;;;;;8.43;5.90;;;;;;;9.90;45.82;101491.53;1697478;82;21175;-76
2021/03/02 08:39:53;;;;;;;12.68;6.75;;;;;;;9.90;45.93;101495.55;1698650;82;21607;-76
2021/03/02 08:42:21;;;;;;;8.68;6.50;;;;;;;9.91;45.84;101495.44;1669075;84;21154;-74
2021/03/02 08:45:07;;;;;;;7.10;5.97;;;;;;;9.88;45.88;101504.20;1714129;81;21613;-77
2021/03/02 08:47:44;;;;;;;9.78;6.45;;;;;;;9.87;45.84;101500.68;1637708;84;21514;-77
2021/03/02 08:50:34;;;;;;;10.95;6.72;;;;;;;9.86;45.89;101497.66;1674691;81;21789;-77
2021/03/02 08:53:34;;;;;;;7.35;5.83;;;;;;;9.86;45.94;101499.48;1707741;81;21970;-76
2021/03/02 08:56:22;;;;;;;10.60;6.20;;;;;;;9.84;46.03;101498.74;1714163;81;21721;-75
2021/03/02 08:59:16;;;;;;;9.35;6.42;;;;;;;9.83;46.05;101489.02;1702436;81;21141;-75
2021/03/02 09:01:49;;;;;;;9.13;7.03;;;;;;;9.81;46.10;101495.85;1717466;81;21117;-76
2021/03/02 09:04:33;;;;;;;8.73;7.03;;;;;;;9.81;46.13;101493.64;1694058;81;21156;-77
2021/03/02 09:07:12;;;;;;;10.32;7.75;;;;;;;9.80;46.20;101494.63;1679299;83;21597;-75
2021/03/02 09:09:51;;;;;;;13.10;8.75;;;;;;;9.80;46.27;101490.11;1697545;81;21112;-74
2021/03/02 09:12:25;;;;;;;13.98;10.05;;;;;;;9.83;46.42;101479.66;1674897;81;21193;-75
2021/03/02 09:14:59;;;;;;;14.13;8.18;;;;;;;9.86;46.42;101476.25;1691692;81;21126;-76
2021/03/02 09:17:28;;;;;;;9.20;6.85;;;;;;;9.91;46.43;101473.18;1716232;81;21555;-77
2021/03/02 09:20:01;;;;;;;11.93;7.40;;;;;;;9.93;46.23;101467.20;1712668;81;21168;-77
2021/03/02 09:22:32;;;;;;;8.85;6.40;;;;;;;9.96;46.15;101460.25;1713278;81;21133;-76
2021/03/02 09:25:01;;;;;;;10.30;7.28;;;;;;;9.97;46.09;101464.63;1707983;81;21522;-76
2021/03/02 09:27:32;;;;;;;10.30;7.50;;;;;;;9.98;46.11;101473.50;1709403;81;21175;-77
2021/03/02 09:30:00;;;;;;;10.98;7.53;;;;;;;9.96;46.10;101482.16;1707668;81;21161;-76
2021/03/02 09:32:31;;;;;;;10.82;8.08;;;;;;;9.96;46.20;101474.98;1709358;81;21136;-73
2021/03/02 09:35:01;;;;;;;11.12;7.85;;;;;;;9.91;46.21;101473.18;1687790;81;21164;-75
2021/03/02 09:37:29;;;;;;;13.48;8.28;;;;;;;9.89;46.17;101477.80;1710431;81;21482;-76
2021/03/02 09:40:11;;;;;;;11.18;7.62;;;;;;;9.87;46.18;101476.59;1710936;81;21562;-76
2021/03/02 09:42:41;;;;;;;11.55;8.25;;;;;;;9.85;46.22;101483.04;1705384;81;21224;-74
2021/03/02 09:45:16;;;;;;;14.28;8.78;;;;;;;9.83;46.37;101482.33;1727382;80;21137;-75
2021/03/02 09:47:46;;;;;;;13.28;7.40;;;;;;;9.82;46.44;101472.62;1748383;80;21530;-73
2021/03/02 09:50:18;;;;;;;12.50;8.25;;;;;;;9.82;46.45;101465.92;1727864;81;21166;-74
2021/03/02 09:52:50;;;;;;;12.53;8.43;;;;;;;9.84;46.52;101462.62;1727501;81;21145;-76
2021/03/02 09:55:28;;;;;;;12.33;9.10;;;;;;;9.84;46.42;101467.48;1726298;81;21733;-77
2021/03/02 09:58:12;;;;;;;11.95;8.85;;;;;;;9.83;46.48;101464.45;1747853;80;21104;-75
2021/03/02 10:00:52;;;;;;;13.08;8.93;;;;;;;9.82;46.28;101459.23;1748170;80;21100;-74
2021/03/02 10:03:23;;;;;;;11.50;8.28;;;;;;;9.78;46.30;101456.45;1726598;81;21132;-77
2021/03/02 10:06:01;;;;;;;13.32;9.03;;;;;;;9.75;46.31;101454.02;1754795;79;21117;-76
2021/03/02 10:08:41;;;;;;;14.40;9.00;;;;;;;9.71;46.40;101440.55;1755137;80;21034;-78
2021/03/02 10:11:18;;;;;;;14.43;10.03;;;;;;;9.72;46.49;101446.25;1732023;81;21176;-77
2021/03/02 10:13:52;;;;;;;17.50;10.70;;;;;;;9.71;46.48;101437.86;1731040;81;21181;-76
2021/03/02 10:16:30;;;;;;;17.35;10.88;;;;;;;9.70;46.49;101436.17;1731465;81;21115;-75
2021/03/02 10:19:17;;;;;;;15.18;10.60;;;;;;;9.70;46.57;101441.03;1750986;80;21186;-76
2021/03/02 10:21:58;;;;;;;14.45;10.72;;;;;;;9.73;46.61;101435.93;1747593;80;21184;-77
2021/03/02 10:24:37;;;;;;;16.37;10.80;;;;;;;9.70;46.54;101424.98;1699408;82;21161;-74
2021/03/02 10:27:16;;;;;;;15.15;10.40;;;;;;;9.70;46.63;101427.66;1731608;80;21126;-74
2021/03/02 10:29:48;;;;;;;15.72;10.45;;;;;;;9.71;46.70;101435.19;1731285;81;21665;-75
2021/03/02 10:32:16;;;;;;;16.52;10.18;;;;;;;9.72;46.56;101418.16;1731845;81;21663;-74
2021/03/02 10:34:45;;;;;;;18.17;11.12;;;;;;;9.73;46.73;101422.55;1755562;80;21022;-77
2021/03/02 10:37:14;;;;;;;18.48;10.80;;;;;;;9.73;46.74;101414.53;1754174;80;21132;-76
2021/03/02 10:39:46;;;;;;;17.35;11.97;;;;;;;9.76;46.69;101406.22;1700882;82;21146;-73
2021/03/02 10:42:15;;;;;;;17.62;10.90;;;;;;;9.76;46.59;101410.23;1750510;80;21603;-74
2021/03/02 10:44:42;;;;;;;18.55;12.13;;;;;;;9.75;46.55;101403.19;1732314;80;22218;-75
2021/03/02 10:47:10;;;;;;;19.90;12.53;;;;;;;9.76;46.50;101412.41;1757011;80;20993;-76
2021/03/02 10:49:38;;;;;;;20.15;12.33;;;;;;;9.78;46.40;101404.28;1713142;81;21176;-76
2021/03/02 10:52:06;;;;;;;28.70;15.40;;;;;;;9.79;46.34;101399.28;1748379;80;21132;-77
2021/03/02 10:54:36;;;;;;;22.90;12.55;;;;;;;9.79;46.28;101389.92;1732577;81;21168;-76
2021/03/02 10:57:04;;;;;;;21.07;12.78;;;;;;;9.78;46.30;101388.23;1733409;81;21177;-76
2021/03/02 10:59:33;;;;;;;24.32;13.10;;;;;;;9.76;46.35;101384.32;1734030;81;21194;-75
2021/03/02 11:02:01;;;;;;;23.50;13.75;;;;;;;9.74;46.30;101384.95;1754466;80;21168;-76
2021/03/02 11:04:28;;;;;;;22.48;13.72;;;;;;;9.72;46.35;101378.90;1717260;81;21176;-77
2021/03/02 11:06:56;;;;;;;24.65;13.35;;;;;;;9.72;46.34;101388.72;1755150;80;21116;-76
2021/03/02 11:09:25;;;;;;;28.02;15.28;;;;;;;9.71;46.40;101364.30;1732974;81;21161;-76
2021/03/02 11:11:53;;;;;;;33.23;15.65;;;;;;;9.72;46.47;101380.70;1731959;81;21186;-77
2021/03/02 11:14:20;;;;;;;28.42;15.05;;;;;;;9.69;46.38;101384.50;1734413;81;21154;-76
2021/03/02 11:16:48;;;;;;;27.20;14.33;;;;;;;9.68;46.51;101381.97;1732986;81;21223;-77
2021/03/02 11:19:17;;;;;;;25.90;13.65;;;;;;;9.68;46.52;101372.11;1752478;80;21060;-76
2021/03/02 11:21:50;;;;;;;29.40;16.05;;;;;;;9.68;46.59;101380.14;1709314;80;21220;-78
2021/03/02 11:24:18;;;;;;;29.65;15.65;;;;;;;9.70;46.58;101371.48;1733113;81;21226;-75
2021/03/02 11:26:47;;;;;;;27.98;15.58;;;;;;;9.72;46.52;101363.31;1702222;82;21140;-76
2021/03/02 11:29:17;;;;;;;30.35;17.20;;;;;;;9.73;46.48;101343.62;1728610;81;21150;-77
2021/03/02 11:31:51;;;;;;;29.48;16.82;;;;;;;9.74;46.42;101335.46;1751968;79;22010;-77
2021/03/02 11:34:21;;;;;;;30.32;16.93;;;;;;;9.75;46.38;101330.46;1735239;80;21899;-74
2021/03/02 11:36:50;;;;;;;29.52;17.23;;;;;;;9.75;46.36;101334.47;1748477;80;21652;-74
2021/03/02 11:39:18;;;;;;;30.95;16.35;;;;;;;9.74;46.30;101339.97;1756284;80;21076;-73
2021/03/02 11:41:47;;;;;;;31.15;17.55;;;;;;;9.75;46.42;101333.62;1756866;80;21229;-73
2021/03/02 11:44:16;;;;;;;29.60;15.88;;;;;;;9.74;46.41;101324.77;1756189;80;21203;-74
2021/03/02 11:46:46;;;;;;;29.20;16.00;;;;;;;9.74;46.46;101317.23;1753467;80;21648;-76
2021/03/02 11:49:16;;;;;;;34.43;17.92;;;;;;;9.74;46.38;101311.87;1756711;80;21872;-74
2021/03/02 11:51:44;;;;;;;33.53;17.92;;;;;;;9.74;46.43;101303.84;1734100;81;21694;-74